createdAt,value
2023-04-18T00:00:15.426Z,7.15
2023-04-18T00:03:22.557Z,7.10
2023-04-18T00:06:31.199Z,7.07
2023-04-18T00:09:46.605Z,7.04
2023-04-18T00:12:31.930Z,7.02
2023-04-18T00:15:27.012Z,6.99
2023-04-18T00:18:43.636Z,6.95
2023-04-18T00:22:19.863Z,6.93
2023-04-18T00:25:28.911Z,6.92
2023-04-18T00:28:21.102Z,6.92
2023-04-18T00:31:06.098Z,6.93
2023-04-18T00:34:24.279Z,6.94
2023-04-18T00:37:07.402Z,6.94
2023-04-18T00:39:40.610Z,6.95
2023-04-18T00:42:14.601Z,6.95
2023-04-18T00:44:53.531Z,6.95
2023-04-18T00:47:30.251Z,6.97
2023-04-18T00:50:16.298Z,6.99
2023-04-18T00:53:01.785Z,7.00
2023-04-18T00:55:37.522Z,7.00
2023-04-18T00:58:13.921Z,7.02
2023-04-18T01:00:58.752Z,7.03
2023-04-18T01:03:35.416Z,7.04
2023-04-18T01:06:18.528Z,7.05
2023-04-18T01:09:23.250Z,7.06
2023-04-18T01:12:12.569Z,7.06
2023-04-18T01:14:52.423Z,7.07
2023-04-18T01:17:42.960Z,7.09
2023-04-18T01:20:24.973Z,7.11
2023-04-18T01:23:26.913Z,7.14
2023-04-18T01:26:08.959Z,7.17
2023-04-18T01:29:02.658Z,7.19
2023-04-18T01:31:51.385Z,7.21
2023-04-18T01:34:43.845Z,7.24
2023-04-18T01:37:44.725Z,7.25
2023-04-18T01:40:30.132Z,7.27
2023-04-18T01:43:28.106Z,7.28
2023-04-18T01:46:35.334Z,7.29
2023-04-18T01:49:29.325Z,7.28
2023-04-18T01:52:30.317Z,7.26
2023-04-18T01:55:22.877Z,7.24
2023-04-18T01:58:29.666Z,7.21
2023-04-18T02:01:39.203Z,7.15
2023-04-18T02:04:48.745Z,7.08
2023-04-18T02:08:08.389Z,7.02
2023-04-18T02:10:53.875Z,6.95
2023-04-18T02:13:38.243Z,6.87
2023-04-18T02:16:25.860Z,6.80
2023-04-18T02:19:09.156Z,6.71
2023-04-18T02:21:56.215Z,6.62
2023-04-18T02:24:36.374Z,6.51
2023-04-18T02:27:28.511Z,6.43
2023-04-18T02:30:15.446Z,6.35
2023-04-18T02:33:10.629Z,6.26
2023-04-18T02:36:28.712Z,6.21
2023-04-18T02:39:10.275Z,6.17
2023-04-18T02:42:07.723Z,6.11
2023-04-18T02:45:03.382Z,6.08
2023-04-18T02:48:09.879Z,6.06
2023-04-18T02:50:54.787Z,6.05
2023-04-18T02:53:53.786Z,6.04
2023-04-18T02:56:45.515Z,6.03
2023-04-18T02:59:41.029Z,6.02
2023-04-18T03:02:43.437Z,6.01
2023-04-18T03:05:59.502Z,6.02
2023-04-18T03:08:41.032Z,6.05
2023-04-18T03:11:23.644Z,6.06
2023-04-18T03:14:12.180Z,6.09
2023-04-18T03:16:55.583Z,6.15
2023-04-18T03:19:52.626Z,6.20
2023-04-18T03:22:29.731Z,6.25
2023-04-18T03:25:12.210Z,6.30
2023-04-18T03:28:07.924Z,6.32
2023-04-18T03:31:31.774Z,6.37
2023-04-18T03:34:07.555Z,6.42
2023-04-18T03:36:42.709Z,6.45
2023-04-18T03:39:42.514Z,6.47
2023-04-18T03:42:18.459Z,6.48
2023-04-18T03:45:03.660Z,6.49
2023-04-18T03:48:00.993Z,6.48
2023-04-18T03:50:49.949Z,6.48
2023-04-18T03:53:26.869Z,6.51
2023-04-18T03:56:22.992Z,6.57
2023-04-18T03:59:18.708Z,6.61
2023-04-18T04:02:20.689Z,6.64
2023-04-18T04:05:39.411Z,6.69
2023-04-18T04:08:30.991Z,6.71
2023-04-18T04:11:27.163Z,6.76
2023-04-18T04:14:14.414Z,6.80
2023-04-18T04:17:13.033Z,6.83
2023-04-18T04:19:59.210Z,6.88
2023-04-18T04:22:49.488Z,6.96
2023-04-18T04:25:27.495Z,7.02
2023-04-18T04:28:16.222Z,7.11
2023-04-18T04:31:08.218Z,7.22
2023-04-18T04:33:54.659Z,7.32
2023-04-18T04:36:51.874Z,7.41
2023-04-18T04:39:35.072Z,7.51
2023-04-18T04:42:34.577Z,7.65
2023-04-18T04:45:17.202Z,7.85
2023-04-18T04:48:07.118Z,8.09
2023-04-18T04:51:00.793Z,8.32
2023-04-18T04:53:49.545Z,8.53
2023-04-18T04:56:45.988Z,8.70
2023-04-18T04:59:34.340Z,8.96
2023-04-18T05:02:22.238Z,9.68
2023-04-18T05:05:14.614Z,11.38
2023-04-18T05:07:55.706Z,13.20
2023-04-18T05:11:01.581Z,14.80
2023-04-18T05:13:40.536Z,16.43
2023-04-18T05:19:51.220Z,18.68
2023-04-18T05:22:38.032Z,19.70
2023-04-18T05:25:41.784Z,20.57
2023-04-18T05:28:31.466Z,20.97
2023-04-18T05:31:31.013Z,21.45
2023-04-18T05:34:22.344Z,22.00
2023-04-18T05:37:12.417Z,22.69
2023-04-18T05:39:54.290Z,23.54
2023-04-18T05:42:39.755Z,24.26
2023-04-18T05:45:16.214Z,24.97
2023-04-18T05:48:08.647Z,26.04
2023-04-18T05:53:47.874Z,28.34
2023-04-18T05:56:50.798Z,28.70
2023-04-18T05:59:32.722Z,28.33
2023-04-18T06:02:41.351Z,28.38
2023-04-18T06:05:22.932Z,28.61
2023-04-18T06:08:11.195Z,28.59
2023-04-18T06:10:57.030Z,28.27
2023-04-18T06:13:58.426Z,27.25
2023-04-18T06:16:50.894Z,26.01
2023-04-18T06:19:37.556Z,24.11
2023-04-18T06:22:46.068Z,22.82
2023-04-18T06:25:44.876Z,22.44
2023-04-18T06:28:51.112Z,22.55
2023-04-18T06:31:43.967Z,23.34
2023-04-18T06:34:39.417Z,24.66
2023-04-18T06:37:26.806Z,26.34
2023-04-18T06:40:10.317Z,28.20
2023-04-18T06:42:57.314Z,29.47
2023-04-18T06:45:44.924Z,30.81
2023-04-18T06:48:37.826Z,32.45
2023-04-18T06:51:43.342Z,33.83
2023-04-18T06:54:23.117Z,35.07
2023-04-18T06:57:12.192Z,35.74
2023-04-18T06:59:55.957Z,35.79
2023-04-18T07:02:54.774Z,36.32
2023-04-18T07:05:43.189Z,36.87
2023-04-18T07:08:40.599Z,37.11
2023-04-18T07:11:41.350Z,36.94
2023-04-18T07:14:39.839Z,35.64
2023-04-18T07:17:29.072Z,33.67
2023-04-18T07:20:11.618Z,31.59
2023-04-18T07:22:59.687Z,29.75
2023-04-18T07:25:44.154Z,28.17
2023-04-18T07:28:34.208Z,26.92
2023-04-18T07:31:29.503Z,25.87
2023-04-18T07:34:13.601Z,24.90
2023-04-18T07:37:06.617Z,24.16
2023-04-18T07:40:11.752Z,23.48
2023-04-18T07:42:57.751Z,23.02
2023-04-18T07:45:58.504Z,22.65
2023-04-18T07:48:40.807Z,22.24
2023-04-18T07:51:32.525Z,21.92
2023-04-18T07:54:27.129Z,21.54
2023-04-18T07:57:23.453Z,21.14
2023-04-18T08:00:08.114Z,20.84
2023-04-18T08:03:01.389Z,20.51
2023-04-18T08:05:55.998Z,20.11
2023-04-18T08:08:52.322Z,19.93
2023-04-18T08:11:36.277Z,19.73
2023-04-18T08:14:37.845Z,19.63
2023-04-18T08:17:23.930Z,19.67
2023-04-18T08:20:14.536Z,19.64
2023-04-18T08:25:49.369Z,19.84
2023-04-18T08:28:33.227Z,20.04
2023-04-18T08:31:46.968Z,20.18
2023-04-18T08:34:34.111Z,20.31
2023-04-18T08:37:26.255Z,20.28
2023-04-18T08:40:23.993Z,20.18
2023-04-18T08:43:20.166Z,20.28
2023-04-18T08:46:13.520Z,20.49
2023-04-18T08:49:16.554Z,20.65
2023-04-18T08:52:03.744Z,20.76
2023-04-18T08:54:50.700Z,20.79
2023-04-18T08:58:46.326Z,20.90
2023-04-18T09:01:31.324Z,21.00
2023-04-18T09:05:05.757Z,21.07
2023-04-18T09:08:22.673Z,20.98
2023-04-18T09:11:38.465Z,20.90
2023-04-18T09:14:38.870Z,20.79
2023-04-18T09:17:52.621Z,20.65
2023-04-18T09:20:59.595Z,20.64
2023-04-18T09:25:27.778Z,20.70
2023-04-18T09:28:01.054Z,20.58
2023-04-18T09:31:02.436Z,20.49
2023-04-18T09:34:08.101Z,20.21
2023-04-18T09:37:15.290Z,20.00
2023-04-18T09:40:35.485Z,20.03
2023-04-18T09:43:45.698Z,20.15
2023-04-18T09:46:55.787Z,20.30
2023-04-18T09:50:02.923Z,20.38
2023-04-18T09:52:55.350Z,20.35
2023-04-18T09:56:04.563Z,20.35
2023-04-18T09:59:10.296Z,20.31
2023-04-18T10:02:13.497Z,20.07
2023-04-18T10:05:13.287Z,19.81
2023-04-18T10:08:24.211Z,19.53
2023-04-18T10:11:35.477Z,19.37
2023-04-18T10:14:29.457Z,19.14
2023-04-18T10:17:24.507Z,18.93
2023-04-18T10:20:25.023Z,18.84
2023-04-18T10:24:03.295Z,18.80
2023-04-18T10:27:14.057Z,18.80
2023-04-18T10:30:09.322Z,18.87
2023-04-18T10:33:29.917Z,19.07
2023-04-18T10:36:27.647Z,19.08
2023-04-18T10:39:48.405Z,19.13
2023-04-18T10:43:12.914Z,19.32
2023-04-18T10:46:28.005Z,19.45
2023-04-18T10:49:44.279Z,19.56
2023-04-18T10:52:43.032Z,19.83
2023-04-18T10:55:50.877Z,20.06
2023-04-18T11:02:06.813Z,20.07
2023-04-18T11:05:11.839Z,20.21
2023-04-18T11:08:00.580Z,20.45
2023-04-18T11:11:09.684Z,20.47
2023-04-18T11:14:06.248Z,20.29
2023-04-18T11:16:55.040Z,20.35
2023-04-18T11:20:19.649Z,20.55
2023-04-18T11:23:00.129Z,20.70
2023-04-18T11:25:45.705Z,20.62
2023-04-18T11:28:55.671Z,20.62
2023-04-18T11:32:02.649Z,20.68
2023-04-18T11:35:14.419Z,20.66
2023-04-18T11:37:57.319Z,20.50
2023-04-18T11:41:22.081Z,20.21
2023-04-18T11:44:01.718Z,20.03
2023-04-18T11:46:53.204Z,19.95
2023-04-18T11:52:37.428Z,19.98
2023-04-18T11:56:09.638Z,19.85
2023-04-18T11:58:54.962Z,19.69
2023-04-18T12:02:33.751Z,19.62
2023-04-18T12:05:52.098Z,19.73
2023-04-18T12:08:34.957Z,19.93
2023-04-18T12:11:31.083Z,20.23
2023-04-18T12:21:14.941Z,20.55
2023-04-18T12:24:02.318Z,20.43
2023-04-18T12:27:30.244Z,20.28
2023-04-18T12:34:14.712Z,20.10
2023-04-18T12:37:36.414Z,20.07
2023-04-18T12:40:33.995Z,19.99
2023-04-18T12:43:11.755Z,19.89
2023-04-18T12:45:51.935Z,19.96
2023-04-18T12:48:53.130Z,20.13
2023-04-18T12:52:07.318Z,20.24
2023-04-18T12:54:40.191Z,20.24
2023-04-18T12:57:09.019Z,20.36
2023-04-18T12:59:37.189Z,20.47
2023-04-18T13:02:07.055Z,20.54
2023-04-18T13:04:35.832Z,20.55
2023-04-18T13:07:04.486Z,20.61
2023-04-18T13:09:32.967Z,20.67
2023-04-18T13:12:02.283Z,20.64
2023-04-18T13:14:30.658Z,20.69
2023-04-18T13:16:59.174Z,20.84
2023-04-18T13:19:27.423Z,21.02
2023-04-18T13:21:55.788Z,21.12
2023-04-18T13:24:23.966Z,21.10
2023-04-18T13:26:52.238Z,21.07
2023-04-18T13:29:20.353Z,21.02
2023-04-18T13:31:48.502Z,20.95
2023-04-18T13:34:16.756Z,20.89
2023-04-18T13:36:44.937Z,20.88
2023-04-18T13:39:14.846Z,20.76
2023-04-18T13:41:43.228Z,20.67
2023-04-18T13:44:11.177Z,20.63
2023-04-18T13:46:39.447Z,20.60
2023-04-18T13:49:07.570Z,20.42
2023-04-18T13:51:36.231Z,20.35
2023-04-18T13:54:04.410Z,20.45
2023-04-18T13:56:32.518Z,20.53
2023-04-18T13:59:00.663Z,20.58
2023-04-18T14:01:29.090Z,20.63
2023-04-18T14:03:57.529Z,20.67
2023-04-18T14:06:27.754Z,20.72
2023-04-18T14:08:56.030Z,20.74
2023-04-18T14:11:24.295Z,20.69
2023-04-18T14:13:52.911Z,20.61
2023-04-18T14:16:24.107Z,20.45
2023-04-18T14:18:53.989Z,20.29
2023-04-18T14:21:22.630Z,20.09
2023-04-18T14:23:55.313Z,19.93
2023-04-18T14:26:23.905Z,19.88
2023-04-18T14:28:52.990Z,19.84
2023-04-18T14:31:22.396Z,19.82
2023-04-18T14:33:51.187Z,19.77
2023-04-18T14:36:22.637Z,19.71
2023-04-18T14:38:54.778Z,19.62
2023-04-18T14:41:25.160Z,19.54
2023-04-18T14:43:53.564Z,19.46
2023-04-18T14:46:43.013Z,19.37
2023-04-18T14:49:13.693Z,19.31
2023-04-18T14:51:42.153Z,19.20
2023-04-18T14:54:13.928Z,19.05
2023-04-18T14:56:44.789Z,18.90
2023-04-18T14:59:16.318Z,18.80
2023-04-18T15:01:47.554Z,18.65
2023-04-18T15:04:21.179Z,18.52
2023-04-18T15:06:50.230Z,18.42
2023-04-18T15:09:21.023Z,18.39
2023-04-18T15:12:00.542Z,18.34
2023-04-18T15:14:43.892Z,18.27
2023-04-18T15:17:21.248Z,18.15
2023-04-18T15:19:51.821Z,18.09
2023-04-18T15:22:40.425Z,18.03
2023-04-18T15:25:16.458Z,17.94
2023-04-18T15:27:44.984Z,17.82
2023-04-18T15:30:16.297Z,17.68
2023-04-18T15:32:54.784Z,17.54
2023-04-18T15:35:26.304Z,17.41
2023-04-18T15:38:07.702Z,17.25
2023-04-18T15:40:59.511Z,17.14
2023-04-18T15:43:27.719Z,17.00
2023-04-18T15:45:56.179Z,16.86
2023-04-18T15:48:24.205Z,16.70
2023-04-18T15:50:53.027Z,16.50
2023-04-18T15:53:21.622Z,16.26
2023-04-18T15:55:51.010Z,16.10
2023-04-18T15:58:20.736Z,15.94
2023-04-18T16:00:50.309Z,15.81
2023-04-18T16:03:18.580Z,15.70
2023-04-18T16:05:47.706Z,15.56
2023-04-18T16:08:15.980Z,15.39
2023-04-18T16:10:44.121Z,15.28
2023-04-18T16:13:12.240Z,15.12
2023-04-18T16:15:43.783Z,15.02
2023-04-18T16:18:11.956Z,14.90
2023-04-18T16:20:42.961Z,14.82
2023-04-18T16:23:11.023Z,14.71
2023-04-18T16:25:39.280Z,14.62
2023-04-18T16:28:07.435Z,14.54
2023-04-18T16:30:35.595Z,14.44
2023-04-18T16:33:04.159Z,14.34
2023-04-18T16:35:32.534Z,14.25
2023-04-18T16:38:00.835Z,14.17
2023-04-18T16:40:30.751Z,14.07
2023-04-18T16:42:58.924Z,13.96
2023-04-18T16:45:27.246Z,13.88
2023-04-18T16:47:55.644Z,13.77
2023-04-18T16:50:24.892Z,13.65
2023-04-18T16:52:53.295Z,13.55
2023-04-18T16:55:21.574Z,13.50
2023-04-18T16:57:49.972Z,13.46
2023-04-18T17:00:18.302Z,13.40
2023-04-18T17:02:47.284Z,13.35
2023-04-18T17:05:15.261Z,13.28
2023-04-18T17:07:45.701Z,13.23
2023-04-18T17:10:13.757Z,13.18
2023-04-18T17:12:41.798Z,13.12
2023-04-18T17:15:11.022Z,13.08
2023-04-18T17:17:39.023Z,13.04
2023-04-18T17:20:08.268Z,13.02
2023-04-18T17:22:36.474Z,12.98
2023-04-18T17:25:05.463Z,12.94
2023-04-18T17:27:36.573Z,12.92
2023-04-18T17:30:05.053Z,12.89
2023-04-18T17:32:33.582Z,12.87
2023-04-18T17:35:05.024Z,12.83
2023-04-18T17:37:33.937Z,12.80
2023-04-18T17:40:06.620Z,12.77
2023-04-18T17:42:34.869Z,12.74
2023-04-18T17:45:07.724Z,12.71
2023-04-18T17:47:36.745Z,12.67
2023-04-18T17:50:05.997Z,12.65
2023-04-18T17:52:34.118Z,12.63
2023-04-18T17:55:02.356Z,12.61
2023-04-18T17:57:30.980Z,12.55
2023-04-18T17:59:59.377Z,12.53
2023-04-18T18:02:28.590Z,12.52
2023-04-18T18:04:57.690Z,12.49
2023-04-18T18:07:26.554Z,12.45
2023-04-18T18:09:56.304Z,12.42
2023-04-18T18:12:25.050Z,12.39
2023-04-18T18:14:53.430Z,12.36
2023-04-18T18:17:22.117Z,12.34
2023-04-18T18:19:50.399Z,12.35
2023-04-18T18:22:18.765Z,12.34
2023-04-18T18:24:47.009Z,12.32
2023-04-18T18:27:15.834Z,12.28
2023-04-18T18:29:44.006Z,12.26
2023-04-18T18:32:12.591Z,12.24
2023-04-18T18:34:40.636Z,12.22
2023-04-18T18:37:08.736Z,12.19
2023-04-18T18:39:36.832Z,12.17
2023-04-18T18:42:05.093Z,12.15
2023-04-18T18:44:33.853Z,12.14
2023-04-18T18:47:01.987Z,12.13
2023-04-18T18:49:30.236Z,12.12
2023-04-18T18:51:58.561Z,12.09
2023-04-18T18:54:32.503Z,12.07
2023-04-18T18:57:02.685Z,12.07
2023-04-18T18:59:31.023Z,12.07
2023-04-18T19:02:10.257Z,12.06
2023-04-18T19:04:38.809Z,12.05
2023-04-18T19:07:07.287Z,12.04
2023-04-18T19:09:36.941Z,12.03
2023-04-18T19:12:08.826Z,12.04
2023-04-18T19:14:37.222Z,12.05
2023-04-18T19:17:05.381Z,12.03
2023-04-18T19:19:33.460Z,12.03
2023-04-18T19:22:01.900Z,12.04
2023-04-18T19:24:38.870Z,12.03
2023-04-18T19:27:10.224Z,12.01
2023-04-18T19:29:39.473Z,11.99
2023-04-18T19:32:07.800Z,11.98
2023-04-18T19:34:36.189Z,11.97
2023-04-18T19:37:04.663Z,11.96
2023-04-18T19:39:32.927Z,11.96
2023-04-18T19:42:02.858Z,11.94
2023-04-18T19:44:31.642Z,11.90
2023-04-18T19:46:59.763Z,11.89
2023-04-18T19:49:35.678Z,11.86
2023-04-18T19:52:04.082Z,11.83
2023-04-18T19:54:35.923Z,11.82
2023-04-18T19:57:04.811Z,11.79
2023-04-18T19:59:32.842Z,11.74
2023-04-18T20:02:05.058Z,11.73
2023-04-18T20:04:34.613Z,11.70
2023-04-18T20:07:03.358Z,11.68
2023-04-18T20:09:31.430Z,11.66
2023-04-18T20:12:02.075Z,11.64
2023-04-18T20:14:30.321Z,11.62
2023-04-18T20:16:58.844Z,11.58
2023-04-18T20:19:27.014Z,11.55
2023-04-18T20:21:55.363Z,11.52
2023-04-18T20:24:28.227Z,11.49
2023-04-18T20:26:59.548Z,11.46
2023-04-18T20:29:28.264Z,11.43
2023-04-18T20:31:56.462Z,11.40
2023-04-18T20:34:24.884Z,11.38
2023-04-18T20:36:53.076Z,11.35
2023-04-18T20:39:21.326Z,11.31
2023-04-18T20:41:50.788Z,11.29
2023-04-18T20:44:22.360Z,11.23
2023-04-18T20:46:53.539Z,11.16
2023-04-18T20:49:21.707Z,11.11
2023-04-18T20:51:50.001Z,11.07
2023-04-18T20:54:18.123Z,11.04
2023-04-18T20:56:46.945Z,11.01
2023-04-18T20:59:15.195Z,10.99
2023-04-18T21:01:43.277Z,10.95
2023-04-18T21:04:11.723Z,10.91
2023-04-18T21:06:39.986Z,10.87
2023-04-18T21:09:09.054Z,10.83
2023-04-18T21:11:37.227Z,10.78
2023-04-18T21:14:06.916Z,10.75
2023-04-18T21:16:39.532Z,10.72
2023-04-18T21:19:08.546Z,10.68
2023-04-18T21:21:36.882Z,10.64
2023-04-18T21:24:05.899Z,10.61
2023-04-18T21:26:34.062Z,10.57
2023-04-18T21:29:06.932Z,10.54
2023-04-18T21:31:38.125Z,10.50
2023-04-18T21:34:06.703Z,10.45
2023-04-18T21:36:34.944Z,10.39
2023-04-18T21:39:04.149Z,10.35
2023-04-18T21:41:32.275Z,10.31
2023-04-18T21:44:00.498Z,10.29
2023-04-18T21:46:31.230Z,10.27
2023-04-18T21:48:59.607Z,10.26
2023-04-18T21:51:28.293Z,10.24
2023-04-18T21:53:56.267Z,10.24
2023-04-18T21:56:24.643Z,10.23
2023-04-18T21:58:53.016Z,10.22
2023-04-18T22:01:21.446Z,10.20
2023-04-18T22:03:50.293Z,10.19
2023-04-18T22:06:18.593Z,10.17
2023-04-18T22:08:46.941Z,10.16
2023-04-18T22:11:15.771Z,10.14
2023-04-18T22:13:45.051Z,10.13
2023-04-18T22:16:13.354Z,10.11
2023-04-18T22:18:41.712Z,10.08
2023-04-18T22:21:10.165Z,10.04
2023-04-18T22:23:38.451Z,10.01
2023-04-18T22:26:06.724Z,9.98
2023-04-18T22:28:35.002Z,9.94
2023-04-18T22:31:03.410Z,9.92
2023-04-18T22:33:31.709Z,9.89
2023-04-18T22:36:00.833Z,9.86
2023-04-18T22:38:29.233Z,9.83
2023-04-18T22:40:58.962Z,9.81
2023-04-18T22:43:27.128Z,9.78
2023-04-18T22:45:55.418Z,9.75
2023-04-18T22:48:23.774Z,9.74
2023-04-18T22:50:51.972Z,9.71
2023-04-18T22:53:20.533Z,9.68
2023-04-18T22:55:48.909Z,9.65
2023-04-18T22:58:20.040Z,9.63
2023-04-18T23:00:48.189Z,9.61
2023-04-18T23:03:16.430Z,9.59
2023-04-18T23:05:44.787Z,9.56
2023-04-18T23:08:13.676Z,9.51
2023-04-18T23:10:41.953Z,9.47
2023-04-18T23:13:12.588Z,9.45
2023-04-18T23:15:41.179Z,9.42
2023-04-18T23:18:09.321Z,9.38
2023-04-18T23:20:39.882Z,9.36
2023-04-18T23:23:17.173Z,9.33
2023-04-18T23:25:48.813Z,9.30
2023-04-18T23:28:22.729Z,9.27
2023-04-18T23:30:51.003Z,9.24
2023-04-18T23:33:22.557Z,9.21
2023-04-18T23:36:03.292Z,9.18
2023-04-18T23:38:31.536Z,9.12
2023-04-18T23:40:59.779Z,9.07
2023-04-18T23:43:28.140Z,9.01
2023-04-18T23:46:05.520Z,8.92
2023-04-18T23:48:33.854Z,8.87
2023-04-18T23:51:25.035Z,8.82
2023-04-18T23:53:56.609Z,8.76
2023-04-18T23:56:24.904Z,8.71
2023-04-18T23:58:56.999Z,8.67
